sensor_id;sensor_type;location;lat;lon;timestamp;P1;durP1;ratioP1;P2;durP2;ratioP2
79135;SDS011;68533;51.090;17.216;2023-11-21T00:01:42;2.35;;;0.93;;
79135;SDS011;68533;51.090;17.216;2023-11-21T00:05:08;0.82;;;0.50;;
79135;SDS011;68533;51.090;17.216;2023-11-21T00:08:34;1.42;;;0.47;;
79135;SDS011;68533;51.090;17.216;2023-11-21T00:11:59;5.60;;;1.42;;
79135;SDS011;68533;51.090;17.216;2023-11-21T00:15:23;1.90;;;0.93;;
79135;SDS011;68533;51.090;17.216;2023-11-21T00:18:48;2.08;;;0.68;;
79135;SDS011;68533;51.090;17.216;2023-11-21T00:25:37;4.10;;;0.70;;
79135;SDS011;68533;51.090;17.216;2023-11-21T00:29:04;1.08;;;0.32;;
79135;SDS011;68533;51.090;17.216;2023-11-21T00:32:32;1.77;;;1.40;;
79135;SDS011;68533;51.090;17.216;2023-11-21T00:35:57;0.50;;;0.47;;
79135;SDS011;68533;51.090;17.216;2023-11-21T00:39:22;2.17;;;1.48;;
79135;SDS011;68533;51.090;17.216;2023-11-21T00:42:47;0.52;;;0.52;;
79135;SDS011;68533;51.090;17.216;2023-11-21T00:46:12;1.88;;;0.60;;
79135;SDS011;68533;51.090;17.216;2023-11-21T00:49:36;1.10;;;0.93;;
79135;SDS011;68533;51.090;17.216;2023-11-21T00:53:01;1.58;;;1.48;;
79135;SDS011;68533;51.090;17.216;2023-11-21T00:56:26;0.57;;;0.57;;
79135;SDS011;68533;51.090;17.216;2023-11-21T00:59:55;0.65;;;0.60;;
79135;SDS011;68533;51.090;17.216;2023-11-21T01:03:19;1.05;;;0.77;;
79135;SDS011;68533;51.090;17.216;2023-11-21T01:06:44;8.00;;;0.63;;
79135;SDS011;68533;51.090;17.216;2023-11-21T01:10:09;1.38;;;0.68;;
79135;SDS011;68533;51.090;17.216;2023-11-21T01:13:34;0.65;;;0.65;;
79135;SDS011;68533;51.090;17.216;2023-11-21T01:16:59;0.95;;;0.57;;
79135;SDS011;68533;51.090;17.216;2023-11-21T01:20:23;2.28;;;0.98;;
79135;SDS011;68533;51.090;17.216;2023-11-21T01:23:48;2.88;;;0.98;;
79135;SDS011;68533;51.090;17.216;2023-11-21T01:27:12;0.98;;;0.30;;
79135;SDS011;68533;51.090;17.216;2023-11-21T01:30:37;0.15;;;0.13;;
79135;SDS011;68533;51.090;17.216;2023-11-21T01:34:04;0.85;;;0.43;;
79135;SDS011;68533;51.090;17.216;2023-11-21T01:37:30;1.33;;;1.23;;
79135;SDS011;68533;51.090;17.216;2023-11-21T01:40:55;2.15;;;1.35;;
79135;SDS011;68533;51.090;17.216;2023-11-21T01:44:20;2.42;;;1.20;;
79135;SDS011;68533;51.090;17.216;2023-11-21T01:47:45;1.30;;;0.70;;
79135;SDS011;68533;51.090;17.216;2023-11-21T01:51:12;2.00;;;0.68;;
79135;SDS011;68533;51.090;17.216;2023-11-21T01:54:39;1.08;;;0.90;;
79135;SDS011;68533;51.090;17.216;2023-11-21T01:58:06;2.05;;;0.50;;
79135;SDS011;68533;51.090;17.216;2023-11-21T02:01:33;0.82;;;0.45;;
79135;SDS011;68533;51.090;17.216;2023-11-21T02:04:58;0.60;;;0.20;;
79135;SDS011;68533;51.090;17.216;2023-11-21T02:08:24;1.23;;;0.95;;
79135;SDS011;68533;51.090;17.216;2023-11-21T02:11:53;1.23;;;0.65;;
79135;SDS011;68533;51.090;17.216;2023-11-21T02:15:19;2.60;;;0.95;;
79135;SDS011;68533;51.090;17.216;2023-11-21T02:18:44;1.65;;;0.80;;
79135;SDS011;68533;51.090;17.216;2023-11-21T02:22:10;0.77;;;0.77;;
79135;SDS011;68533;51.090;17.216;2023-11-21T02:25:35;0.47;;;0.13;;
79135;SDS011;68533;51.090;17.216;2023-11-21T02:28:59;2.33;;;1.10;;
79135;SDS011;68533;51.090;17.216;2023-11-21T02:32:25;2.70;;;0.95;;
79135;SDS011;68533;51.090;17.216;2023-11-21T02:35:50;0.50;;;0.30;;
79135;SDS011;68533;51.090;17.216;2023-11-21T02:39:17;4.68;;;1.00;;
79135;SDS011;68533;51.090;17.216;2023-11-21T02:42:50;2.17;;;1.88;;
79135;SDS011;68533;51.090;17.216;2023-11-21T02:46:15;2.80;;;1.15;;
79135;SDS011;68533;51.090;17.216;2023-11-21T02:49:40;1.40;;;0.38;;
79135;SDS011;68533;51.090;17.216;2023-11-21T02:53:04;1.20;;;1.02;;
79135;SDS011;68533;51.090;17.216;2023-11-21T02:56:32;2.08;;;0.90;;
79135;SDS011;68533;51.090;17.216;2023-11-21T02:59:57;0.38;;;0.35;;
79135;SDS011;68533;51.090;17.216;2023-11-21T03:03:30;0.75;;;0.75;;
79135;SDS011;68533;51.090;17.216;2023-11-21T03:06:58;0.98;;;0.55;;
79135;SDS011;68533;51.090;17.216;2023-11-21T03:10:22;2.85;;;0.73;;
79135;SDS011;68533;51.090;17.216;2023-11-21T03:13:47;1.52;;;0.60;;
79135;SDS011;68533;51.090;17.216;2023-11-21T03:17:11;1.52;;;1.05;;
79135;SDS011;68533;51.090;17.216;2023-11-21T03:20:36;1.27;;;1.15;;
79135;SDS011;68533;51.090;17.216;2023-11-21T03:24:01;1.13;;;0.77;;
79135;SDS011;68533;51.090;17.216;2023-11-21T03:27:26;0.55;;;0.45;;
79135;SDS011;68533;51.090;17.216;2023-11-21T03:30:52;1.13;;;0.45;;
79135;SDS011;68533;51.090;17.216;2023-11-21T03:34:24;1.40;;;1.30;;
79135;SDS011;68533;51.090;17.216;2023-11-21T03:37:49;1.27;;;0.40;;
79135;SDS011;68533;51.090;17.216;2023-11-21T03:41:15;5.07;;;1.75;;
79135;SDS011;68533;51.090;17.216;2023-11-21T03:48:06;1.40;;;1.02;;
79135;SDS011;68533;51.090;17.216;2023-11-21T03:51:31;2.72;;;1.33;;
79135;SDS011;68533;51.090;17.216;2023-11-21T03:54:55;2.33;;;0.85;;
79135;SDS011;68533;51.090;17.216;2023-11-21T03:58:20;2.47;;;1.35;;
79135;SDS011;68533;51.090;17.216;2023-11-21T04:01:45;2.40;;;0.93;;
79135;SDS011;68533;51.090;17.216;2023-11-21T04:05:10;8.07;;;0.95;;
79135;SDS011;68533;51.090;17.216;2023-11-21T04:08:35;5.20;;;1.85;;
79135;SDS011;68533;51.090;17.216;2023-11-21T04:12:01;1.55;;;1.45;;
79135;SDS011;68533;51.090;17.216;2023-11-21T04:15:26;1.58;;;0.93;;
79135;SDS011;68533;51.090;17.216;2023-11-21T04:18:50;1.45;;;1.35;;
79135;SDS011;68533;51.090;17.216;2023-11-21T04:22:15;1.00;;;0.60;;
79135;SDS011;68533;51.090;17.216;2023-11-21T04:25:40;1.73;;;1.00;;
79135;SDS011;68533;51.090;17.216;2023-11-21T04:29:06;1.17;;;0.77;;
79135;SDS011;68533;51.090;17.216;2023-11-21T04:32:33;1.30;;;1.10;;
79135;SDS011;68533;51.090;17.216;2023-11-21T04:36:01;2.38;;;0.95;;
79135;SDS011;68533;51.090;17.216;2023-11-21T04:39:26;1.08;;;0.98;;
79135;SDS011;68533;51.090;17.216;2023-11-21T04:42:52;2.63;;;1.13;;
79135;SDS011;68533;51.090;17.216;2023-11-21T04:46:18;1.02;;;0.70;;
79135;SDS011;68533;51.090;17.216;2023-11-21T04:49:45;1.67;;;0.52;;
79135;SDS011;68533;51.090;17.216;2023-11-21T04:53:11;1.85;;;1.48;;
79135;SDS011;68533;51.090;17.216;2023-11-21T04:56:36;0.65;;;0.63;;
79135;SDS011;68533;51.090;17.216;2023-11-21T05:00:01;0.47;;;0.40;;
79135;SDS011;68533;51.090;17.216;2023-11-21T05:03:26;0.98;;;0.40;;
79135;SDS011;68533;51.090;17.216;2023-11-21T05:06:51;0.77;;;0.65;;
79135;SDS011;68533;51.090;17.216;2023-11-21T05:10:16;2.33;;;0.82;;
79135;SDS011;68533;51.090;17.216;2023-11-21T05:13:54;2.35;;;1.55;;
79135;SDS011;68533;51.090;17.216;2023-11-21T05:17:20;1.23;;;0.98;;
79135;SDS011;68533;51.090;17.216;2023-11-21T05:20:44;2.92;;;0.80;;
79135;SDS011;68533;51.090;17.216;2023-11-21T05:24:09;0.55;;;0.40;;
79135;SDS011;68533;51.090;17.216;2023-11-21T05:27:34;1.30;;;0.95;;
79135;SDS011;68533;51.090;17.216;2023-11-21T05:30:59;1.65;;;1.02;;
79135;SDS011;68533;51.090;17.216;2023-11-21T05:34:24;1.50;;;0.68;;
79135;SDS011;68533;51.090;17.216;2023-11-21T05:37:48;1.80;;;1.67;;
79135;SDS011;68533;51.090;17.216;2023-11-21T05:41:12;1.45;;;1.17;;
79135;SDS011;68533;51.090;17.216;2023-11-21T05:44:37;1.55;;;0.90;;
79135;SDS011;68533;51.090;17.216;2023-11-21T05:48:06;1.52;;;0.93;;
79135;SDS011;68533;51.090;17.216;2023-11-21T05:51:30;2.08;;;1.88;;
79135;SDS011;68533;51.090;17.216;2023-11-21T05:54:58;2.80;;;0.82;;
79135;SDS011;68533;51.090;17.216;2023-11-21T05:58:23;1.42;;;0.38;;
79135;SDS011;68533;51.090;17.216;2023-11-21T06:01:48;1.90;;;0.90;;
79135;SDS011;68533;51.090;17.216;2023-11-21T06:05:16;0.63;;;0.50;;
79135;SDS011;68533;51.090;17.216;2023-11-21T06:08:41;2.75;;;1.30;;
79135;SDS011;68533;51.090;17.216;2023-11-21T06:12:06;2.65;;;0.68;;
79135;SDS011;68533;51.090;17.216;2023-11-21T06:15:32;1.23;;;1.15;;
79135;SDS011;68533;51.090;17.216;2023-11-21T06:18:57;2.17;;;1.52;;
79135;SDS011;68533;51.090;17.216;2023-11-21T06:22:21;6.00;;;2.00;;
79135;SDS011;68533;51.090;17.216;2023-11-21T06:25:46;5.70;;;1.83;;
79135;SDS011;68533;51.090;17.216;2023-11-21T06:32:37;0.45;;;0.45;;
79135;SDS011;68533;51.090;17.216;2023-11-21T06:36:02;2.67;;;0.93;;
79135;SDS011;68533;51.090;17.216;2023-11-21T06:39:27;4.13;;;1.52;;
79135;SDS011;68533;51.090;17.216;2023-11-21T06:42:53;1.25;;;1.02;;
79135;SDS011;68533;51.090;17.216;2023-11-21T06:46:20;1.10;;;0.77;;
79135;SDS011;68533;51.090;17.216;2023-11-21T06:49:51;2.75;;;0.70;;
79135;SDS011;68533;51.090;17.216;2023-11-21T06:53:18;0.60;;;0.60;;
79135;SDS011;68533;51.090;17.216;2023-11-21T06:56:43;1.67;;;1.25;;
79135;SDS011;68533;51.090;17.216;2023-11-21T07:00:09;3.38;;;1.58;;
79135;SDS011;68533;51.090;17.216;2023-11-21T07:03:33;2.63;;;1.40;;
79135;SDS011;68533;51.090;17.216;2023-11-21T07:06:59;0.88;;;0.88;;
79135;SDS011;68533;51.090;17.216;2023-11-21T07:10:29;1.02;;;0.75;;
79135;SDS011;68533;51.090;17.216;2023-11-21T07:13:54;1.50;;;1.27;;
79135;SDS011;68533;51.090;17.216;2023-11-21T07:17:19;1.20;;;0.88;;
79135;SDS011;68533;51.090;17.216;2023-11-21T07:20:44;2.28;;;1.05;;
79135;SDS011;68533;51.090;17.216;2023-11-21T07:24:09;2.95;;;1.17;;
79135;SDS011;68533;51.090;17.216;2023-11-21T07:27:35;1.38;;;0.93;;
79135;SDS011;68533;51.090;17.216;2023-11-21T07:30:59;5.45;;;0.82;;
79135;SDS011;68533;51.090;17.216;2023-11-21T07:34:25;3.67;;;1.70;;
79135;SDS011;68533;51.090;17.216;2023-11-21T07:37:49;2.40;;;1.45;;
79135;SDS011;68533;51.090;17.216;2023-11-21T07:41:15;2.50;;;1.90;;
79135;SDS011;68533;51.090;17.216;2023-11-21T07:44:40;7.82;;;2.70;;
79135;SDS011;68533;51.090;17.216;2023-11-21T07:48:05;2.63;;;1.58;;
79135;SDS011;68533;51.090;17.216;2023-11-21T07:51:29;7.95;;;3.55;;
79135;SDS011;68533;51.090;17.216;2023-11-21T07:54:57;2.55;;;1.63;;
79135;SDS011;68533;51.090;17.216;2023-11-21T07:58:22;1.30;;;1.05;;
79135;SDS011;68533;51.090;17.216;2023-11-21T08:01:49;9.23;;;1.23;;
79135;SDS011;68533;51.090;17.216;2023-11-21T08:05:14;3.28;;;1.60;;
79135;SDS011;68533;51.090;17.216;2023-11-21T08:08:39;2.33;;;1.25;;
79135;SDS011;68533;51.090;17.216;2023-11-21T08:12:03;1.42;;;1.23;;
79135;SDS011;68533;51.090;17.216;2023-11-21T08:15:29;3.28;;;1.77;;
79135;SDS011;68533;51.090;17.216;2023-11-21T08:18:55;1.85;;;1.50;;
79135;SDS011;68533;51.090;17.216;2023-11-21T08:22:20;1.48;;;1.33;;
79135;SDS011;68533;51.090;17.216;2023-11-21T08:25:45;2.88;;;1.25;;
79135;SDS011;68533;51.090;17.216;2023-11-21T08:29:12;2.90;;;2.00;;
79135;SDS011;68533;51.090;17.216;2023-11-21T08:32:37;1.40;;;1.30;;
79135;SDS011;68533;51.090;17.216;2023-11-21T08:36:06;1.80;;;1.10;;
79135;SDS011;68533;51.090;17.216;2023-11-21T08:39:31;1.63;;;1.30;;
79135;SDS011;68533;51.090;17.216;2023-11-21T08:42:56;2.45;;;1.40;;
79135;SDS011;68533;51.090;17.216;2023-11-21T08:46:21;2.33;;;1.70;;
79135;SDS011;68533;51.090;17.216;2023-11-21T08:49:46;3.60;;;1.55;;
79135;SDS011;68533;51.090;17.216;2023-11-21T08:53:11;1.83;;;1.20;;
79135;SDS011;68533;51.090;17.216;2023-11-21T09:00:01;3.38;;;1.92;;
79135;SDS011;68533;51.090;17.216;2023-11-21T09:03:27;2.10;;;1.00;;
79135;SDS011;68533;51.090;17.216;2023-11-21T09:06:51;5.07;;;1.83;;
79135;SDS011;68533;51.090;17.216;2023-11-21T09:10:16;3.47;;;1.15;;
79135;SDS011;68533;51.090;17.216;2023-11-21T09:17:06;5.05;;;1.55;;
79135;SDS011;68533;51.090;17.216;2023-11-21T09:20:30;1.25;;;0.63;;
79135;SDS011;68533;51.090;17.216;2023-11-21T09:23:58;0.65;;;0.55;;
79135;SDS011;68533;51.090;17.216;2023-11-21T09:27:23;2.55;;;1.35;;
79135;SDS011;68533;51.090;17.216;2023-11-21T09:30:48;1.27;;;0.50;;
79135;SDS011;68533;51.090;17.216;2023-11-21T09:34:12;1.85;;;0.77;;
79135;SDS011;68533;51.090;17.216;2023-11-21T09:37:40;2.28;;;1.38;;
79135;SDS011;68533;51.090;17.216;2023-11-21T09:41:05;1.83;;;1.73;;
79135;SDS011;68533;51.090;17.216;2023-11-21T09:44:54;2.90;;;1.40;;
79135;SDS011;68533;51.090;17.216;2023-11-21T09:48:27;2.72;;;1.52;;
79135;SDS011;68533;51.090;17.216;2023-11-21T09:51:52;1.38;;;0.63;;
79135;SDS011;68533;51.090;17.216;2023-11-21T09:55:27;2.60;;;1.23;;
79135;SDS011;68533;51.090;17.216;2023-11-21T09:58:53;1.92;;;0.95;;
79135;SDS011;68533;51.090;17.216;2023-11-21T10:02:24;1.95;;;0.90;;
79135;SDS011;68533;51.090;17.216;2023-11-21T10:05:50;3.05;;;1.23;;
79135;SDS011;68533;51.090;17.216;2023-11-21T10:09:16;1.50;;;0.70;;
79135;SDS011;68533;51.090;17.216;2023-11-21T10:12:43;0.85;;;0.65;;
79135;SDS011;68533;51.090;17.216;2023-11-21T10:16:12;2.50;;;1.98;;
79135;SDS011;68533;51.090;17.216;2023-11-21T10:19:41;1.75;;;0.73;;
79135;SDS011;68533;51.090;17.216;2023-11-21T10:23:07;6.05;;;2.60;;
79135;SDS011;68533;51.090;17.216;2023-11-21T10:26:32;5.10;;;2.28;;
79135;SDS011;68533;51.090;17.216;2023-11-21T10:30:00;5.05;;;3.10;;
79135;SDS011;68533;51.090;17.216;2023-11-21T10:33:27;6.07;;;3.30;;
79135;SDS011;68533;51.090;17.216;2023-11-21T10:36:56;7.68;;;2.13;;
79135;SDS011;68533;51.090;17.216;2023-11-21T10:40:28;5.05;;;4.00;;
79135;SDS011;68533;51.090;17.216;2023-11-21T10:43:53;3.83;;;2.47;;
79135;SDS011;68533;51.090;17.216;2023-11-21T10:47:18;5.97;;;4.03;;
79135;SDS011;68533;51.090;17.216;2023-11-21T10:50:46;3.10;;;2.72;;
79135;SDS011;68533;51.090;17.216;2023-11-21T10:54:18;7.53;;;3.28;;
79135;SDS011;68533;51.090;17.216;2023-11-21T10:57:53;7.78;;;4.28;;
79135;SDS011;68533;51.090;17.216;2023-11-21T11:01:18;6.88;;;3.47;;
79135;SDS011;68533;51.090;17.216;2023-11-21T11:05:00;3.25;;;2.85;;
79135;SDS011;68533;51.090;17.216;2023-11-21T11:08:25;6.90;;;4.07;;
79135;SDS011;68533;51.090;17.216;2023-11-21T11:11:53;8.48;;;3.65;;
79135;SDS011;68533;51.090;17.216;2023-11-21T11:15:17;7.15;;;3.60;;
79135;SDS011;68533;51.090;17.216;2023-11-21T11:18:43;4.68;;;3.83;;
79135;SDS011;68533;51.090;17.216;2023-11-21T11:25:52;5.53;;;4.25;;
79135;SDS011;68533;51.090;17.216;2023-11-21T11:37:03;11.13;;;5.18;;
79135;SDS011;68533;51.090;17.216;2023-11-21T11:40:39;9.98;;;5.20;;
79135;SDS011;68533;51.090;17.216;2023-11-21T11:44:08;10.80;;;5.32;;
79135;SDS011;68533;51.090;17.216;2023-11-21T11:47:57;6.05;;;3.30;;
79135;SDS011;68533;51.090;17.216;2023-11-21T11:51:31;10.68;;;4.43;;
79135;SDS011;68533;51.090;17.216;2023-11-21T11:55:04;5.05;;;3.03;;
79135;SDS011;68533;51.090;17.216;2023-11-21T11:58:49;5.28;;;3.55;;
79135;SDS011;68533;51.090;17.216;2023-11-21T12:02:44;4.55;;;2.53;;
79135;SDS011;68533;51.090;17.216;2023-11-21T12:06:09;8.25;;;3.92;;
79135;SDS011;68533;51.090;17.216;2023-11-21T12:09:34;6.60;;;3.70;;
79135;SDS011;68533;51.090;17.216;2023-11-21T12:13:06;5.22;;;1.90;;
79135;SDS011;68533;51.090;17.216;2023-11-21T12:16:34;4.10;;;2.55;;
79135;SDS011;68533;51.090;17.216;2023-11-21T12:20:02;6.53;;;4.40;;
79135;SDS011;68533;51.090;17.216;2023-11-21T12:23:27;5.20;;;3.35;;
79135;SDS011;68533;51.090;17.216;2023-11-21T12:26:54;8.40;;;4.57;;
79135;SDS011;68533;51.090;17.216;2023-11-21T12:30:20;7.68;;;5.30;;
79135;SDS011;68533;51.090;17.216;2023-11-21T12:33:45;7.68;;;3.75;;
79135;SDS011;68533;51.090;17.216;2023-11-21T12:37:10;4.03;;;3.17;;
79135;SDS011;68533;51.090;17.216;2023-11-21T12:40:35;6.50;;;4.13;;
79135;SDS011;68533;51.090;17.216;2023-11-21T12:44:00;5.65;;;2.58;;
79135;SDS011;68533;51.090;17.216;2023-11-21T12:47:34;2.60;;;2.40;;
79135;SDS011;68533;51.090;17.216;2023-11-21T12:51:00;3.55;;;1.98;;
79135;SDS011;68533;51.090;17.216;2023-11-21T12:54:24;2.30;;;2.03;;
79135;SDS011;68533;51.090;17.216;2023-11-21T12:57:51;13.18;;;1.98;;
79135;SDS011;68533;51.090;17.216;2023-11-21T13:01:18;3.75;;;1.73;;
79135;SDS011;68533;51.090;17.216;2023-11-21T13:04:43;2.08;;;1.55;;
79135;SDS011;68533;51.090;17.216;2023-11-21T13:08:11;8.18;;;2.80;;
79135;SDS011;68533;51.090;17.216;2023-11-21T13:11:44;2.40;;;1.95;;
79135;SDS011;68533;51.090;17.216;2023-11-21T13:15:16;2.28;;;0.88;;
79135;SDS011;68533;51.090;17.216;2023-11-21T13:18:44;4.45;;;2.50;;
79135;SDS011;68533;51.090;17.216;2023-11-21T13:22:11;2.05;;;1.27;;
79135;SDS011;68533;51.090;17.216;2023-11-21T13:25:42;1.10;;;0.90;;
79135;SDS011;68533;51.090;17.216;2023-11-21T13:29:08;1.77;;;1.67;;
79135;SDS011;68533;51.090;17.216;2023-11-21T13:32:33;4.40;;;1.67;;
79135;SDS011;68533;51.090;17.216;2023-11-21T13:35:59;1.95;;;1.00;;
79135;SDS011;68533;51.090;17.216;2023-11-21T13:39:26;1.75;;;0.98;;
79135;SDS011;68533;51.090;17.216;2023-11-21T13:42:53;8.00;;;3.75;;
79135;SDS011;68533;51.090;17.216;2023-11-21T13:46:24;3.65;;;1.70;;
79135;SDS011;68533;51.090;17.216;2023-11-21T13:49:55;2.80;;;2.33;;
79135;SDS011;68533;51.090;17.216;2023-11-21T13:53:24;6.88;;;1.63;;
79135;SDS011;68533;51.090;17.216;2023-11-21T13:56:52;6.18;;;2.92;;
79135;SDS011;68533;51.090;17.216;2023-11-21T14:00:20;2.33;;;1.70;;
79135;SDS011;68533;51.090;17.216;2023-11-21T14:04:13;6.68;;;2.13;;
79135;SDS011;68533;51.090;17.216;2023-11-21T14:07:40;3.22;;;1.85;;
79135;SDS011;68533;51.090;17.216;2023-11-21T14:11:04;2.88;;;2.40;;
79135;SDS011;68533;51.090;17.216;2023-11-21T14:14:34;2.28;;;2.08;;
79135;SDS011;68533;51.090;17.216;2023-11-21T14:18:03;7.22;;;1.38;;
79135;SDS011;68533;51.090;17.216;2023-11-21T14:21:41;2.13;;;1.17;;
79135;SDS011;68533;51.090;17.216;2023-11-21T14:25:06;3.00;;;1.55;;
79135;SDS011;68533;51.090;17.216;2023-11-21T14:28:32;0.73;;;0.73;;
79135;SDS011;68533;51.090;17.216;2023-11-21T14:32:01;2.10;;;1.23;;
79135;SDS011;68533;51.090;17.216;2023-11-21T14:35:26;4.47;;;1.55;;
79135;SDS011;68533;51.090;17.216;2023-11-21T14:38:51;2.42;;;1.92;;
79135;SDS011;68533;51.090;17.216;2023-11-21T14:42:16;1.88;;;1.75;;
79135;SDS011;68533;51.090;17.216;2023-11-21T14:45:42;2.42;;;1.20;;
79135;SDS011;68533;51.090;17.216;2023-11-21T14:49:12;1.85;;;1.40;;
79135;SDS011;68533;51.090;17.216;2023-11-21T14:52:55;1.98;;;1.13;;
79135;SDS011;68533;51.090;17.216;2023-11-21T14:56:22;4.07;;;1.27;;
79135;SDS011;68533;51.090;17.216;2023-11-21T14:59:50;1.75;;;1.02;;
79135;SDS011;68533;51.090;17.216;2023-11-21T15:03:16;3.17;;;0.50;;
79135;SDS011;68533;51.090;17.216;2023-11-21T15:10:21;0.75;;;0.75;;
79135;SDS011;68533;51.090;17.216;2023-11-21T15:13:51;0.63;;;0.63;;
79135;SDS011;68533;51.090;17.216;2023-11-21T15:17:21;0.55;;;0.55;;
79135;SDS011;68533;51.090;17.216;2023-11-21T15:20:48;0.55;;;0.55;;
79135;SDS011;68533;51.090;17.216;2023-11-21T15:24:14;0.73;;;0.35;;
79135;SDS011;68533;51.090;17.216;2023-11-21T15:27:39;0.38;;;0.38;;
79135;SDS011;68533;51.090;17.216;2023-11-21T15:31:05;0.60;;;0.60;;
79135;SDS011;68533;51.090;17.216;2023-11-21T15:34:33;1.85;;;0.85;;
79135;SDS011;68533;51.090;17.216;2023-11-21T15:37:58;0.45;;;0.45;;
79135;SDS011;68533;51.090;17.216;2023-11-21T15:41:25;0.95;;;0.93;;
79135;SDS011;68533;51.090;17.216;2023-11-21T15:44:50;1.33;;;1.27;;
79135;SDS011;68533;51.090;17.216;2023-11-21T15:48:15;1.27;;;1.27;;
79135;SDS011;68533;51.090;17.216;2023-11-21T15:51:42;1.88;;;0.80;;
79135;SDS011;68533;51.090;17.216;2023-11-21T15:55:10;0.70;;;0.70;;
79135;SDS011;68533;51.090;17.216;2023-11-21T15:58:38;2.10;;;1.90;;
79135;SDS011;68533;51.090;17.216;2023-11-21T16:02:05;3.10;;;1.45;;
79135;SDS011;68533;51.090;17.216;2023-11-21T16:05:29;3.15;;;1.88;;
79135;SDS011;68533;51.090;17.216;2023-11-21T16:08:56;2.10;;;1.60;;
79135;SDS011;68533;51.090;17.216;2023-11-21T16:12:20;2.30;;;0.90;;
79135;SDS011;68533;51.090;17.216;2023-11-21T16:15:45;3.22;;;2.00;;
79135;SDS011;68533;51.090;17.216;2023-11-21T16:19:10;2.58;;;1.70;;
79135;SDS011;68533;51.090;17.216;2023-11-21T16:22:38;0.45;;;0.35;;
